createdAt,value
2022-10-22T00:00:13.041Z,95982.09
2022-10-22T00:02:40.209Z,95946.63
2022-10-22T00:05:07.132Z,95959.28
2022-10-22T00:07:33.885Z,95995.72
2022-10-22T00:10:00.515Z,95967.78
2022-10-22T00:12:27.777Z,95994.09
2022-10-22T00:14:54.505Z,95963.72
2022-10-22T00:17:21.330Z,95988.72
2022-10-22T00:19:47.961Z,95957.88
2022-10-22T00:22:14.599Z,95933.94
2022-10-22T00:24:41.517Z,95968.16
2022-10-22T00:27:10.386Z,95937.34
2022-10-22T00:29:37.098Z,95913.13
2022-10-22T00:32:05.212Z,95976.41
2022-10-22T00:34:31.862Z,95962.44
2022-10-22T00:36:58.678Z,95962.00
2022-10-22T00:39:27.116Z,95978.63
2022-10-22T00:41:56.304Z,95983.56
2022-10-22T00:45:03.621Z,95974.56
2022-10-22T00:47:39.250Z,95981.84
2022-10-22T00:50:09.710Z,95957.81
2022-10-22T00:52:36.830Z,95910.16
2022-10-22T00:55:04.454Z,95962.09
2022-10-22T00:57:31.663Z,95986.78
2022-10-22T00:59:58.638Z,95971.81
2022-10-22T01:02:25.314Z,95967.53
2022-10-22T01:04:51.994Z,95986.91
2022-10-22T01:07:22.115Z,95988.75
2022-10-22T01:10:13.637Z,95982.72
2022-10-22T01:12:46.302Z,95979.75
2022-10-22T01:15:33.629Z,95975.69
2022-10-22T01:18:10.815Z,95973.81
2022-10-22T01:21:15.269Z,95970.06
2022-10-22T01:24:19.527Z,95982.59
2022-10-22T01:26:46.075Z,95973.03
2022-10-22T01:29:15.670Z,95955.56
2022-10-22T01:31:46.717Z,95945.19
2022-10-22T01:34:17.418Z,95960.41
2022-10-22T01:36:46.566Z,95921.91
2022-10-22T01:39:15.466Z,95926.09
2022-10-22T01:41:45.413Z,95962.63
2022-10-22T01:47:07.458Z,95964.47
2022-10-22T01:49:54.115Z,95942.25
2022-10-22T01:52:47.589Z,95963.84
2022-10-22T01:55:53.070Z,95960.72
2022-10-22T01:58:55.243Z,95955.00
2022-10-22T02:01:40.959Z,95929.72
2022-10-22T02:04:35.372Z,95923.88
2022-10-22T02:07:06.473Z,95943.16
2022-10-22T02:09:35.412Z,95915.19
2022-10-22T02:12:07.833Z,95914.66
2022-10-22T02:14:37.099Z,95895.06
2022-10-22T02:17:07.690Z,95918.50
2022-10-22T02:19:41.709Z,95932.59
2022-10-22T02:22:08.733Z,95869.78
2022-10-22T02:24:35.851Z,95885.28
2022-10-22T02:27:24.294Z,95915.66
2022-10-22T02:30:08.490Z,95912.34
2022-10-22T02:32:43.597Z,95915.09
2022-10-22T02:35:13.955Z,95915.09
2022-10-22T02:37:41.310Z,95884.84
2022-10-22T02:40:08.984Z,95875.63
2022-10-22T02:42:38.027Z,95902.22
2022-10-22T02:45:05.446Z,95884.63
2022-10-22T02:47:32.090Z,95908.06
2022-10-22T02:49:58.723Z,95908.50
2022-10-22T02:52:25.897Z,95890.56
2022-10-22T02:54:52.498Z,95910.56
2022-10-22T02:57:19.083Z,95921.03
2022-10-22T02:59:45.726Z,95948.53
2022-10-22T03:02:12.328Z,95933.22
2022-10-22T03:04:40.363Z,95939.94
2022-10-22T03:07:07.019Z,95909.78
2022-10-22T03:09:33.627Z,95921.78
2022-10-22T03:12:00.302Z,95927.63
2022-10-22T03:14:26.944Z,95930.59
2022-10-22T03:16:53.581Z,95924.84
2022-10-22T03:19:20.209Z,95926.41
2022-10-22T03:22:03.146Z,95912.56
2022-10-22T03:24:39.898Z,95862.84
2022-10-22T03:27:06.613Z,95923.78
2022-10-22T03:29:37.215Z,95850.84
2022-10-22T03:32:03.956Z,95876.72
2022-10-22T03:34:30.626Z,95891.78
2022-10-22T03:37:00.383Z,95872.22
2022-10-22T03:39:28.980Z,95845.47
2022-10-22T03:41:56.015Z,95896.84
2022-10-22T03:44:23.738Z,95897.41
2022-10-22T03:46:51.122Z,95885.16
2022-10-22T03:49:17.723Z,95858.66
2022-10-22T03:51:44.477Z,95903.31
2022-10-22T03:54:11.103Z,95888.38
2022-10-22T03:56:37.743Z,95885.50
2022-10-22T03:59:04.733Z,95891.44
2022-10-22T04:01:31.705Z,95911.56
2022-10-22T04:03:59.071Z,95937.88
2022-10-22T04:06:25.735Z,95915.75
2022-10-22T04:08:52.705Z,95940.72
2022-10-22T04:11:19.393Z,95908.16
2022-10-22T04:13:46.040Z,95900.78
2022-10-22T04:16:18.358Z,95932.47
2022-10-22T04:18:47.475Z,95932.66
2022-10-22T04:21:16.142Z,95982.75
2022-10-22T04:23:47.352Z,95986.03
2022-10-22T04:26:14.586Z,95960.47
2022-10-22T04:28:41.753Z,95998.91
2022-10-22T04:31:14.095Z,95981.72
2022-10-22T04:33:42.202Z,96010.25
2022-10-22T04:36:27.604Z,96031.50
2022-10-22T04:38:57.011Z,96014.75
2022-10-22T04:41:29.153Z,96008.56
2022-10-22T04:43:56.838Z,96028.94
2022-10-22T04:46:25.733Z,96032.22
2022-10-22T04:48:53.050Z,96039.03
2022-10-22T04:51:22.366Z,96020.03
2022-10-22T04:53:49.627Z,96005.59
2022-10-22T04:56:20.842Z,96011.44
2022-10-22T04:58:49.084Z,96016.38
2022-10-22T05:01:26.376Z,96013.19
2022-10-22T05:03:55.911Z,95975.53
2022-10-22T05:06:23.589Z,96005.47
2022-10-22T05:09:02.362Z,96013.97
2022-10-22T05:11:31.797Z,95963.41
2022-10-22T05:13:59.868Z,95990.28
2022-10-22T05:16:29.180Z,96014.81
2022-10-22T05:18:57.852Z,96022.34
2022-10-22T05:21:24.573Z,96027.59
2022-10-22T05:23:51.719Z,96025.44
2022-10-22T05:26:21.024Z,96034.22
2022-10-22T05:28:49.916Z,96014.16
2022-10-22T05:31:17.407Z,96020.66
2022-10-22T05:33:44.958Z,96010.22
2022-10-22T05:36:14.794Z,96037.75
2022-10-22T05:38:41.610Z,96030.25
2022-10-22T05:41:14.071Z,96075.47
2022-10-22T05:43:41.100Z,96078.34
2022-10-22T05:46:13.379Z,96082.09
2022-10-22T05:48:40.226Z,96079.22
2022-10-22T05:51:09.517Z,96067.44
2022-10-22T05:53:38.910Z,96085.59
2022-10-22T05:56:08.396Z,96036.16
2022-10-22T05:58:36.340Z,96040.22
2022-10-22T06:01:08.811Z,96077.03
2022-10-22T06:03:35.574Z,96066.50
2022-10-22T06:06:24.887Z,96074.56
2022-10-22T06:08:53.673Z,96090.75
2022-10-22T06:11:22.521Z,96010.53
2022-10-22T06:13:50.598Z,96092.16
2022-10-22T06:16:17.394Z,96069.53
2022-10-22T06:18:43.963Z,96057.25
2022-10-22T06:21:13.083Z,96040.13
2022-10-22T06:23:40.707Z,96088.50
2022-10-22T06:26:08.355Z,96097.34
2022-10-22T06:28:35.739Z,96072.88
2022-10-22T06:31:03.622Z,96079.91
2022-10-22T06:33:32.217Z,96099.97
2022-10-22T06:36:25.161Z,96100.31
2022-10-22T06:38:53.653Z,96092.69
2022-10-22T06:41:23.072Z,96075.19
2022-10-22T06:43:53.921Z,96096.34
2022-10-22T06:46:21.802Z,96107.28
2022-10-22T06:48:50.774Z,96082.78
2022-10-22T06:51:18.190Z,96095.59
2022-10-22T06:53:45.213Z,96099.66
2022-10-22T06:56:14.848Z,96122.78
2022-10-22T06:58:41.614Z,96068.00
2022-10-22T07:01:12.216Z,96114.91
2022-10-22T07:03:40.119Z,96095.63
2022-10-22T07:06:09.204Z,96098.69
2022-10-22T07:08:36.853Z,96161.16
2022-10-22T07:11:13.988Z,96157.41
2022-10-22T07:13:41.077Z,96143.22
2022-10-22T07:16:08.236Z,96167.91
2022-10-22T07:18:36.403Z,96159.84
2022-10-22T07:21:03.107Z,96175.59
2022-10-22T07:23:30.229Z,96138.09
2022-10-22T07:25:57.832Z,96134.81
2022-10-22T07:28:24.879Z,96148.69
2022-10-22T07:30:51.585Z,96185.13
2022-10-22T07:33:18.245Z,96174.25
2022-10-22T07:35:44.917Z,96173.03
2022-10-22T07:38:11.551Z,96201.06
2022-10-22T07:40:38.306Z,96178.88
2022-10-22T07:43:04.979Z,96209.31
2022-10-22T07:45:31.940Z,96182.00
2022-10-22T07:47:59.618Z,96184.19
2022-10-22T07:50:26.951Z,96169.09
2022-10-22T07:52:56.018Z,96166.66
2022-10-22T07:55:24.226Z,96206.00
2022-10-22T07:57:50.879Z,96192.44
2022-10-22T08:00:20.481Z,96197.22
2022-10-22T08:02:49.761Z,96231.78
2022-10-22T08:05:16.622Z,96239.31
2022-10-22T08:07:43.322Z,96213.84
2022-10-22T08:10:10.833Z,96209.63
2022-10-22T08:12:38.707Z,96246.13
2022-10-22T08:15:06.487Z,96248.19
2022-10-22T08:17:33.122Z,96195.59
2022-10-22T08:20:02.754Z,96238.47
2022-10-22T08:22:29.432Z,96212.47
2022-10-22T08:24:56.105Z,96230.38
2022-10-22T08:27:22.766Z,96267.91
2022-10-22T08:29:49.435Z,96274.88
2022-10-22T08:32:16.106Z,96257.56
2022-10-22T08:34:42.803Z,96249.63
2022-10-22T08:37:10.526Z,96284.38
2022-10-22T08:39:37.219Z,96304.09
2022-10-22T08:42:36.580Z,96289.69
2022-10-22T08:45:03.114Z,96306.16
2022-10-22T08:47:35.631Z,96310.91
2022-10-22T08:50:02.481Z,96261.06
2022-10-22T08:52:32.957Z,96317.09
2022-10-22T08:55:02.314Z,96324.50
2022-10-22T08:57:55.637Z,96325.28
2022-10-22T09:00:36.571Z,96285.03
2022-10-22T09:03:06.265Z,96323.94
2022-10-22T09:06:13.573Z,96322.84
2022-10-22T09:08:43.195Z,96322.72
2022-10-22T09:11:12.843Z,96335.16
2022-10-22T09:13:45.284Z,96334.75
2022-10-22T09:16:30.796Z,96339.31
2022-10-22T09:19:05.917Z,96328.56
2022-10-22T09:22:09.792Z,96278.84
2022-10-22T09:25:01.077Z,96320.25
2022-10-22T09:27:30.118Z,96293.38
2022-10-22T09:29:57.292Z,96270.81
2022-10-22T09:32:25.351Z,96317.59
2022-10-22T09:34:56.587Z,96323.59
2022-10-22T09:37:27.648Z,96300.47
2022-10-22T09:39:56.484Z,96335.81
2022-10-22T09:42:23.751Z,96331.78
2022-10-22T09:44:57.639Z,96317.72
2022-10-22T09:47:43.245Z,96342.78
2022-10-22T09:50:47.695Z,96353.28
2022-10-22T09:53:18.581Z,96357.31
2022-10-22T09:55:51.301Z,96358.16
2022-10-22T09:58:18.883Z,96326.22
2022-10-22T10:00:51.522Z,96362.31
2022-10-22T10:03:22.501Z,96375.16
2022-10-22T10:05:52.594Z,96362.22
2022-10-22T10:08:19.258Z,96361.88
2022-10-22T10:10:53.682Z,96361.69
2022-10-22T10:13:35.652Z,96389.97
2022-10-22T10:16:07.480Z,96381.84
2022-10-22T10:18:57.150Z,96383.44
2022-10-22T10:22:02.397Z,96390.84
2022-10-22T10:24:32.115Z,96393.84
2022-10-22T10:27:05.980Z,96390.16
2022-10-22T10:30:04.153Z,96391.44
2022-10-22T10:32:55.292Z,96398.72
2022-10-22T10:35:27.950Z,96395.06
2022-10-22T10:38:16.427Z,96406.09
2022-10-22T10:40:55.694Z,96362.91
2022-10-22T10:43:24.970Z,96400.84
2022-10-22T10:46:04.400Z,96405.09
2022-10-22T10:48:48.763Z,96376.22
2022-10-22T10:51:24.757Z,96400.59
2022-10-22T10:54:07.781Z,96399.34
2022-10-22T10:56:45.408Z,96336.22
2022-10-22T10:59:36.876Z,96404.09
2022-10-22T11:02:22.414Z,96400.78
2022-10-22T11:05:12.142Z,96407.44
2022-10-22T11:08:02.044Z,96399.88
2022-10-22T11:10:40.869Z,96418.16
2022-10-22T11:13:39.235Z,96390.72
2022-10-22T11:16:32.443Z,96387.06
2022-10-22T11:19:06.031Z,96414.53
2022-10-22T11:21:49.757Z,96371.88
2022-10-22T11:24:43.385Z,96411.56
2022-10-22T11:27:19.097Z,96411.16
2022-10-22T11:29:52.286Z,96414.31
2022-10-22T11:32:22.218Z,96399.34
2022-10-22T11:34:54.329Z,96384.28
2022-10-22T11:37:24.802Z,96369.06
2022-10-22T11:39:54.091Z,96405.50
2022-10-22T11:42:33.527Z,96410.91
2022-10-22T11:45:06.278Z,96402.13
2022-10-22T11:47:54.654Z,96404.25
2022-10-22T11:50:43.155Z,96415.94
2022-10-22T11:53:12.768Z,96407.34
2022-10-22T11:55:51.734Z,96388.06
2022-10-22T11:58:29.719Z,96415.84
2022-10-22T12:00:57.813Z,96421.72
2022-10-22T12:03:33.688Z,96414.03
2022-10-22T12:06:12.763Z,96414.31
2022-10-22T12:08:50.310Z,96391.91
2022-10-22T12:11:23.916Z,96417.34
2022-10-22T12:14:32.702Z,96382.13
2022-10-22T12:17:10.989Z,96380.03
2022-10-22T12:19:44.758Z,96411.09
2022-10-22T12:22:17.608Z,96417.78
2022-10-22T12:24:47.475Z,96422.72
2022-10-22T12:27:27.814Z,96421.75
2022-10-22T12:29:59.269Z,96421.44
2022-10-22T12:32:38.672Z,96425.34
2022-10-22T12:35:15.335Z,96409.25
2022-10-22T12:37:42.323Z,96401.34
2022-10-22T12:40:18.435Z,96416.50
2022-10-22T12:42:55.006Z,96396.84
2022-10-22T12:45:22.446Z,96327.41
2022-10-22T12:47:52.286Z,96400.00
2022-10-22T12:50:23.123Z,96413.41
2022-10-22T12:52:50.090Z,96344.94
2022-10-22T12:55:39.874Z,96406.31
2022-10-22T12:58:07.161Z,96428.25
2022-10-22T13:00:35.168Z,96417.97
2022-10-22T13:03:06.532Z,96376.38
2022-10-22T13:05:39.195Z,96415.97
2022-10-22T13:08:10.383Z,96409.16
2022-10-22T13:10:41.412Z,96418.16
2022-10-22T13:13:32.243Z,96419.06
2022-10-22T13:16:17.011Z,96417.25
2022-10-22T13:18:44.625Z,96377.56
2022-10-22T13:21:47.959Z,96410.44
2022-10-22T13:24:24.636Z,96358.78
2022-10-22T13:26:55.927Z,96398.22
2022-10-22T13:29:24.364Z,96411.50
2022-10-22T13:31:53.302Z,96409.09
2022-10-22T13:34:23.395Z,96396.34
2022-10-22T13:36:50.075Z,96364.19
2022-10-22T13:39:19.415Z,96388.97
2022-10-22T13:41:46.238Z,96430.56
2022-10-22T13:44:12.891Z,96407.16
2022-10-22T13:46:42.872Z,96411.25
2022-10-22T13:49:16.651Z,96432.16
2022-10-22T13:51:44.000Z,96429.84
2022-10-22T13:54:20.922Z,96429.88
2022-10-22T13:56:47.638Z,96393.41
2022-10-22T13:59:16.212Z,96400.72
2022-10-22T14:01:45.677Z,96351.72
2022-10-22T14:04:14.729Z,96435.59
2022-10-22T14:06:41.469Z,96349.91
2022-10-22T14:09:14.108Z,96383.53
2022-10-22T14:11:40.859Z,96407.44
2022-10-22T14:14:09.240Z,96414.00
2022-10-22T14:16:37.621Z,96375.13
2022-10-22T14:19:07.694Z,96401.78
2022-10-22T14:21:37.217Z,96418.78
2022-10-22T14:24:24.279Z,96405.00
2022-10-22T14:26:50.910Z,96423.69
2022-10-22T14:29:17.552Z,96374.66
2022-10-22T14:31:44.879Z,96414.97
2022-10-22T14:34:14.378Z,96444.91
2022-10-22T14:36:43.832Z,96410.75
2022-10-22T14:39:11.103Z,96435.63
2022-10-22T14:41:38.152Z,96439.94
2022-10-22T14:44:05.080Z,96418.41
2022-10-22T14:46:31.887Z,96415.31
2022-10-22T14:48:58.588Z,96422.25
2022-10-22T14:51:25.309Z,96411.84
2022-10-22T14:53:51.956Z,96361.63
2022-10-22T14:56:23.134Z,96409.19
2022-10-22T14:58:50.056Z,96388.88
2022-10-22T15:01:17.398Z,96436.09
2022-10-22T15:03:44.103Z,96435.59
2022-10-22T15:06:10.816Z,96448.16
2022-10-22T15:08:37.897Z,96436.66
2022-10-22T15:11:10.986Z,96412.28
2022-10-22T15:13:37.960Z,96446.41
2022-10-22T15:16:10.680Z,96434.31
2022-10-22T15:18:37.767Z,96426.16
2022-10-22T15:21:07.483Z,96442.28
2022-10-22T15:23:36.132Z,96380.06
2022-10-22T15:26:02.784Z,96443.53
2022-10-22T15:28:29.608Z,96422.78
2022-10-22T15:30:58.493Z,96428.66
2022-10-22T15:33:26.993Z,96445.88
2022-10-22T15:35:54.183Z,96414.94
2022-10-22T15:38:21.252Z,96447.41
2022-10-22T15:40:48.048Z,96437.97
2022-10-22T15:43:14.785Z,96383.19
2022-10-22T15:45:41.509Z,96427.13
2022-10-22T15:48:09.084Z,96429.16
2022-10-22T15:50:39.419Z,96448.00
2022-10-22T15:53:06.072Z,96461.38
2022-10-22T15:55:32.830Z,96441.25
2022-10-22T15:58:01.957Z,96447.22
2022-10-22T16:00:30.922Z,96422.25
2022-10-22T16:02:57.522Z,96424.16
2022-10-22T16:05:24.230Z,96416.47
2022-10-22T16:07:51.507Z,96463.53
2022-10-22T16:10:18.243Z,96471.75
2022-10-22T16:12:44.985Z,96432.81
2022-10-22T16:15:11.738Z,96470.13
2022-10-22T16:17:38.509Z,96450.38
2022-10-22T16:20:05.713Z,96465.13
2022-10-22T16:22:33.450Z,96455.28
2022-10-22T16:25:00.147Z,96447.63
2022-10-22T16:27:26.849Z,96382.34
2022-10-22T16:29:53.476Z,96477.94
2022-10-22T16:32:20.233Z,96471.31
2022-10-22T16:34:46.890Z,96475.66
2022-10-22T16:37:13.631Z,96469.28
2022-10-22T16:39:40.315Z,96453.44
2022-10-22T16:42:07.013Z,96504.66
2022-10-22T16:44:33.709Z,96439.47
2022-10-22T16:47:00.994Z,96496.78
2022-10-22T16:49:27.800Z,96434.47
2022-10-22T16:51:54.500Z,96505.00
2022-10-22T16:54:21.919Z,96494.84
2022-10-22T16:56:48.686Z,96477.97
2022-10-22T16:59:15.324Z,96419.50
2022-10-22T17:01:42.215Z,96485.28
2022-10-22T17:04:10.099Z,96519.28
2022-10-22T17:06:36.838Z,96479.22
2022-10-22T17:09:04.360Z,96447.91
2022-10-22T17:11:36.416Z,96487.94
2022-10-22T17:14:05.242Z,96518.41
2022-10-22T17:16:31.894Z,96472.31
2022-10-22T17:18:58.627Z,96493.78
2022-10-22T17:21:25.549Z,96501.19
2022-10-22T17:23:56.935Z,96523.50
2022-10-22T17:26:26.546Z,96538.41
2022-10-22T17:28:53.975Z,96513.25
2022-10-22T17:31:23.527Z,96467.38
2022-10-22T17:33:52.521Z,96538.69
2022-10-22T17:36:20.076Z,96521.50
2022-10-22T17:38:55.525Z,96533.06
2022-10-22T17:41:25.813Z,96541.44
2022-10-22T17:43:53.000Z,96461.84
2022-10-22T17:46:24.708Z,96549.44
2022-10-22T17:48:56.798Z,96528.56
2022-10-22T17:51:24.995Z,96548.09
2022-10-22T17:53:51.856Z,96546.28
2022-10-22T17:56:23.859Z,96504.00
2022-10-22T17:58:51.427Z,96539.25
2022-10-22T18:01:25.465Z,96534.47
2022-10-22T18:03:53.865Z,96527.28
2022-10-22T18:06:21.185Z,96523.38
2022-10-22T18:08:47.918Z,96497.97
2022-10-22T18:11:20.093Z,96532.09
2022-10-22T18:13:51.412Z,96540.53
2022-10-22T18:16:18.962Z,96502.91
2022-10-22T18:18:50.593Z,96500.13
2022-10-22T18:21:18.072Z,96547.25
2022-10-22T18:23:45.814Z,96543.81
2022-10-22T18:26:13.433Z,96545.81
2022-10-22T18:28:40.137Z,96520.00
2022-10-22T18:31:08.635Z,96547.50
2022-10-22T18:33:37.476Z,96489.84
2022-10-22T18:36:06.310Z,96549.03
2022-10-22T18:38:33.024Z,96539.47
2022-10-22T18:41:00.231Z,96459.22
2022-10-22T18:43:26.968Z,96504.22
2022-10-22T18:45:53.695Z,96494.59
2022-10-22T18:48:22.908Z,96535.31
2022-10-22T18:50:59.815Z,96496.78
2022-10-22T18:53:26.824Z,96552.25
2022-10-22T18:55:53.524Z,96420.75
2022-10-22T18:58:20.369Z,96533.09
2022-10-22T19:00:47.361Z,96551.50
2022-10-22T19:03:14.508Z,96556.34
2022-10-22T19:05:46.229Z,96539.03
2022-10-22T19:08:13.030Z,96571.63
2022-10-22T19:10:39.864Z,96534.31
2022-10-22T19:13:06.499Z,96515.91
2022-10-22T19:15:33.239Z,96554.00
2022-10-22T19:17:59.855Z,96535.78
2022-10-22T19:20:26.609Z,96387.31
2022-10-22T19:22:53.562Z,96477.34
2022-10-22T19:25:20.202Z,96474.47
2022-10-22T19:27:48.215Z,96567.84
2022-10-22T19:30:15.839Z,96545.34
2022-10-22T19:32:42.857Z,96550.59
2022-10-22T19:35:09.654Z,96507.66
2022-10-22T19:37:37.612Z,96541.50
2022-10-22T19:40:11.569Z,96567.88
2022-10-22T19:42:38.674Z,96571.56
2022-10-22T19:45:06.843Z,96560.09
2022-10-22T19:47:36.466Z,96577.94
2022-10-22T19:50:03.308Z,96520.50
2022-10-22T19:52:29.989Z,96526.28
2022-10-22T19:54:56.681Z,96574.63
2022-10-22T19:57:23.397Z,96513.16
2022-10-22T19:59:50.930Z,96574.03
2022-10-22T20:02:18.651Z,96595.31
2022-10-22T20:04:49.198Z,96561.16
2022-10-22T20:07:17.343Z,96573.84
2022-10-22T20:09:44.067Z,96599.63
2022-10-22T20:12:10.813Z,96550.22
2022-10-22T20:14:37.558Z,96526.72
2022-10-22T20:17:04.407Z,96431.28
2022-10-22T20:19:31.338Z,96531.56
2022-10-22T20:24:29.939Z,96597.41
2022-10-22T20:26:56.742Z,96560.50
2022-10-22T20:29:23.495Z,96534.28
2022-10-22T20:31:50.594Z,96589.53
2022-10-22T20:34:17.806Z,96554.75
2022-10-22T20:36:44.488Z,96517.63
2022-10-22T20:39:14.543Z,96593.69
2022-10-22T20:41:41.432Z,96526.31
2022-10-22T20:44:13.043Z,96564.41
2022-10-22T20:46:39.871Z,96592.66
2022-10-22T20:49:11.851Z,96588.94
2022-10-22T20:51:38.624Z,96526.00
2022-10-22T20:54:07.490Z,96597.69
2022-10-22T20:56:36.675Z,96594.66
2022-10-22T20:59:04.875Z,96564.22
2022-10-22T21:01:35.363Z,96393.44
2022-10-22T21:04:02.178Z,96530.06
2022-10-22T21:06:29.291Z,96601.06
2022-10-22T21:08:56.085Z,96511.53
2022-10-22T21:11:23.344Z,96560.50
2022-10-22T21:14:10.564Z,96539.22
2022-10-22T21:16:44.250Z,96595.44
2022-10-22T21:19:11.548Z,96597.03
2022-10-22T21:21:38.231Z,96589.47
2022-10-22T21:24:26.319Z,96600.50
2022-10-22T21:26:54.106Z,96560.91
2022-10-22T21:29:20.825Z,96602.38
2022-10-22T21:31:47.760Z,96493.22
2022-10-22T21:34:14.553Z,96562.94
2022-10-22T21:36:41.447Z,96536.97
2022-10-22T21:39:12.269Z,96568.66
2022-10-22T21:41:39.018Z,96561.44
2022-10-22T21:44:06.082Z,96510.78
2022-10-22T21:46:32.861Z,96579.59
2022-10-22T21:49:02.370Z,96602.53
2022-10-22T21:51:31.685Z,96617.16
2022-10-22T21:53:58.860Z,96607.00
2022-10-22T21:56:29.823Z,96611.69
2022-10-22T21:58:56.510Z,96539.28
2022-10-22T22:01:23.398Z,96404.03
2022-10-22T22:03:51.389Z,96542.88
2022-10-22T22:06:21.721Z,96576.91
2022-10-22T22:08:49.463Z,96540.41
2022-10-22T22:11:21.368Z,96609.69
2022-10-22T22:13:50.935Z,96565.41
2022-10-22T22:16:23.947Z,96591.66
2022-10-22T22:18:53.994Z,96600.56
2022-10-22T22:21:21.996Z,96584.22
2022-10-22T22:23:50.526Z,96606.53
2022-10-22T22:26:25.231Z,96600.06
2022-10-22T22:28:55.948Z,96581.38
2022-10-22T22:31:25.075Z,96568.03
2022-10-22T22:33:57.681Z,96603.53
2022-10-22T22:36:24.295Z,96548.25
2022-10-22T22:38:56.071Z,96585.13
2022-10-22T22:41:22.846Z,96585.00
2022-10-22T22:43:49.646Z,96571.75
2022-10-22T22:46:16.344Z,96577.28
2022-10-22T22:48:43.008Z,96556.03
2022-10-22T22:51:10.544Z,96605.91
2022-10-22T22:53:37.165Z,96565.31
2022-10-22T22:56:13.444Z,96530.06
2022-10-22T22:58:40.835Z,96600.16
2022-10-22T23:01:29.178Z,96501.50
2022-10-22T23:03:58.637Z,96570.81
2022-10-22T23:06:28.114Z,96590.94
2022-10-22T23:08:55.325Z,96608.03
2022-10-22T23:11:23.463Z,96573.53
2022-10-22T23:13:59.117Z,96601.00
2022-10-22T23:16:27.487Z,96595.56
2022-10-22T23:18:55.545Z,96589.44
2022-10-22T23:21:27.044Z,96566.41
2022-10-22T23:23:56.529Z,96582.94
2022-10-22T23:26:25.627Z,96578.88
2022-10-22T23:28:52.285Z,96566.59
2022-10-22T23:31:21.586Z,96573.19
2022-10-22T23:33:48.876Z,96574.38
2022-10-22T23:36:36.014Z,96438.16
2022-10-22T23:39:10.879Z,96568.00
2022-10-22T23:41:37.931Z,96562.09
2022-10-22T23:44:05.836Z,96540.56
2022-10-22T23:46:33.447Z,96456.22
2022-10-22T23:49:01.003Z,96535.69
2022-10-22T23:51:28.252Z,96560.09
2022-10-22T23:53:57.445Z,96560.78
2022-10-22T23:56:24.579Z,96560.47
2022-10-22T23:58:52.109Z,96559.41
